Time;durP1;ratioP1;P1;durP2;ratioP2;P2;SDS_P1;SDS_P2;PMS_P1;PMS_P2;Temp;Humidity;BMP_temperature;BMP_pressure;BME280_temperature;BME280_humidity;BME280_pressure;Samples;Min_cycle;Max_cycle;Signal;HPM_P1;HPM_P2
2022/12/28 00:01:45;;;;;;;;;;;4.20;1.00;;;;;;5041572;28;19932;-78
2022/12/28 00:04:15;;;;;;;;;;;4.10;1.00;;;;;;5038491;28;19996;-77
2022/12/28 00:09:51;;;;;;;;;;;4.00;1.00;;;;;;5033804;28;19921;-77
2022/12/28 00:12:39;;;;;;;;;;;4.00;1.00;;;;;;5036483;28;19971;-77
2022/12/28 00:15:05;;;;;;;;;;;4.00;1.00;;;;;;5034233;28;20299;-77
2022/12/28 00:17:39;;;;;;;;;;;4.00;1.30;;;;;;5039122;28;19919;-80
2022/12/28 00:20:10;;;;;;;;;;;4.10;2.50;;;;;;5039507;28;20015;-80
2022/12/28 00:25:57;;;;;;;;;;;4.30;1.00;;;;;;5035244;28;19916;-80
2022/12/28 00:28:27;;;;;;;;;;;4.30;1.00;;;;;;5036098;28;19921;-80
2022/12/28 00:31:04;;;;;;;;;;;4.40;1.00;;;;;;5044434;28;19917;-78
2022/12/28 00:33:33;;;;;;;;;;;4.50;1.00;;;;;;5048794;28;19909;-77
2022/12/28 00:36:09;;;;;;;;;;;4.60;1.00;;;;;;5045829;28;19913;-76
2022/12/28 00:38:37;;;;;;;;;;;4.60;1.00;;;;;;5033634;28;20012;-77
2022/12/28 00:41:15;;;;;;;;;;;4.70;1.00;;;;;;5047612;28;19913;-77
2022/12/28 00:43:52;;;;;;;;;;;4.80;1.00;;;;;;5043926;28;19913;-77
2022/12/28 00:46:22;;;;;;;;;;;4.90;1.00;;;;;;5036369;28;19913;-77
2022/12/28 00:48:58;;;;;;;;;;;4.90;1.00;;;;;;5033420;28;19971;-77
2022/12/28 00:51:28;;;;;;;;;;;5.00;1.00;;;;;;5036531;28;19912;-77
2022/12/28 00:53:58;;;;;;;;;;;4.90;1.00;;;;;;5046074;28;20007;-77
2022/12/28 00:56:23;;;;;;;;;;;5.00;1.00;;;;;;5034921;28;19917;-77
2022/12/28 00:58:49;;;;;;;;;;;5.10;1.00;;;;;;5032165;28;19925;-77
2022/12/28 01:01:18;;;;;;;;;;;5.10;1.00;;;;;;5046987;28;19916;-77
2022/12/28 01:03:43;;;;;;;;;;;5.10;1.00;;;;;;5041998;28;19917;-80
2022/12/28 01:06:11;;;;;;;;;;;5.10;1.00;;;;;;5039020;28;19913;-80
2022/12/28 01:08:37;;;;;;;;;;;5.10;1.00;;;;;;5033156;28;19909;-80
2022/12/28 01:11:07;;;;;;;;;;;5.10;1.00;;;;;;5051403;28;19959;-79
2022/12/28 01:13:33;;;;;;;;;;;5.10;1.00;;;;;;5033200;28;20313;-80
2022/12/28 01:16:14;;;;;;;;;;;5.10;1.00;;;;;;5047078;28;19913;-81
2022/12/28 01:18:46;;;;;;;;;;;5.10;1.00;;;;;;5040591;28;19909;-77
2022/12/28 01:21:17;;;;;;;;;;;5.10;1.00;;;;;;5037803;28;19940;-77
2022/12/28 01:23:59;;;;;;;;;;;5.20;1.00;;;;;;5055266;28;20435;-77
2022/12/28 01:26:28;;;;;;;;;;;5.30;1.00;;;;;;5042413;28;19963;-77
2022/12/28 01:28:58;;;;;;;;;;;5.40;1.00;;;;;;5040722;28;19923;-77
2022/12/28 01:31:28;;;;;;;;;;;5.40;1.00;;;;;;5050855;28;19917;-76
2022/12/28 01:33:54;;;;;;;;;;;5.40;1.00;;;;;;5044913;28;20027;-77
2022/12/28 01:36:21;;;;;;;;;;;5.50;1.00;;;;;;5048794;28;19921;-77
2022/12/28 01:38:47;;;;;;;;;;;5.40;1.00;;;;;;5036332;28;20292;-77
2022/12/28 01:41:16;;;;;;;;;;;5.40;1.00;;;;;;5037724;28;20004;-77
2022/12/28 01:44:12;;;;;;;;;;;5.40;1.00;;;;;;5056093;28;19908;-77
2022/12/28 01:46:52;;;;;;;;;;;5.40;1.00;;;;;;5007624;28;20379;-79
2022/12/28 01:49:38;;;;;;;;;;;5.50;1.00;;;;;;5006657;28;19952;-80
2022/12/28 01:52:27;;;;;;;;;;;5.60;1.00;;;;;;4994727;28;19924;-80
2022/12/28 01:55:15;;;;;;;;;;;5.50;1.00;;;;;;5014134;28;19953;-80
2022/12/28 01:57:47;;;;;;;;;;;5.50;1.00;;;;;;5006872;28;19913;-80
2022/12/28 02:00:28;;;;;;;;;;;5.60;1.00;;;;;;5013927;28;19920;-80
2022/12/28 02:02:59;;;;;;;;;;;5.60;1.00;;;;;;5007652;28;19909;-78
2022/12/28 02:05:30;;;;;;;;;;;5.60;1.00;;;;;;5026078;28;19916;-76
2022/12/28 02:08:04;;;;;;;;;;;5.60;1.00;;;;;;5003872;28;19913;-77
2022/12/28 02:10:40;;;;;;;;;;;5.60;1.00;;;;;;5007744;28;20614;-77
2022/12/28 02:13:06;;;;;;;;;;;5.70;1.00;;;;;;5004268;28;19935;-77
2022/12/28 02:15:41;;;;;;;;;;;5.70;1.00;;;;;;5013941;28;20012;-77
2022/12/28 02:18:17;;;;;;;;;;;5.70;1.00;;;;;;5001830;28;19925;-77
2022/12/28 02:20:52;;;;;;;;;;;5.60;1.00;;;;;;4994462;28;19914;-76
2022/12/28 02:23:23;;;;;;;;;;;5.60;1.00;;;;;;5021024;28;19935;-77
2022/12/28 02:26:06;;;;;;;;;;;5.70;1.00;;;;;;5066099;28;19913;-77
2022/12/28 02:28:52;;;;;;;;;;;5.60;1.00;;;;;;5037576;28;20000;-76
2022/12/28 02:31:42;;;;;;;;;;;5.50;1.00;;;;;;5050405;28;19910;-76
2022/12/28 02:34:16;;;;;;;;;;;5.50;1.00;;;;;;5035401;28;19920;-80
2022/12/28 02:36:49;;;;;;;;;;;5.50;1.00;;;;;;5035473;28;19971;-80
2022/12/28 02:39:33;;;;;;;;;;;5.50;1.00;;;;;;5035515;28;19924;-80
2022/12/28 02:41:59;;;;;;;;;;;5.60;1.00;;;;;;5048176;28;20000;-80
2022/12/28 02:50:05;;;;;;;;;;;5.60;1.00;;;;;;5053421;28;19924;-80
2022/12/28 02:52:46;;;;;;;;;;;5.60;1.00;;;;;;5039217;28;19955;-80
2022/12/28 02:58:37;;;;;;;;;;;5.50;1.00;;;;;;5047573;28;20047;-80
2022/12/28 03:01:10;;;;;;;;;;;5.50;1.00;;;;;;5037661;28;20016;-80
2022/12/28 03:03:39;;;;;;;;;;;5.50;1.00;;;;;;5044499;28;19936;-77
2022/12/28 03:09:28;;;;;;;;;;;5.70;1.00;;;;;;5042488;28;19959;-77
2022/12/28 03:12:02;;;;;;;;;;;5.60;1.00;;;;;;5039478;28;19915;-76
2022/12/28 03:15:03;;;;;;;;;;;5.60;1.00;;;;;;5034841;28;19971;-77
2022/12/28 03:32:04;;;;;;;;;;;5.60;1.00;;;;;;5009654;28;19916;-77
2022/12/28 03:34:34;;;;;;;;;;;5.70;1.00;;;;;;5007633;28;19910;-80
2022/12/28 03:37:07;;;;;;;;;;;5.70;1.00;;;;;;5008003;28;19952;-80
2022/12/28 03:39:41;;;;;;;;;;;5.70;1.00;;;;;;5013482;28;19921;-80
2022/12/28 03:45:28;;;;;;;;;;;5.80;1.00;;;;;;5012427;28;19920;-80
2022/12/28 03:47:53;;;;;;;;;;;5.90;1.00;;;;;;5009310;28;19920;-78
2022/12/28 03:50:20;;;;;;;;;;;5.90;1.00;;;;;;5013010;28;19909;-76
2022/12/28 03:52:52;;;;;;;;;;;5.90;1.00;;;;;;5037621;28;19948;-77
2022/12/28 03:55:17;;;;;;;;;;;5.80;1.00;;;;;;5035188;28;19959;-77
2022/12/28 03:57:58;;;;;;;;;;;5.80;1.00;;;;;;5046131;28;19917;-77
2022/12/28 04:00:23;;;;;;;;;;;5.90;1.00;;;;;;5035189;28;20011;-77
2022/12/28 04:02:49;;;;;;;;;;;5.90;1.00;;;;;;5047658;28;20003;-77
2022/12/28 04:08:18;;;;;;;;;;;5.90;1.00;;;;;;5046967;28;19931;-77
2022/12/28 04:10:43;;;;;;;;;;;5.90;1.00;;;;;;5034125;28;20372;-77
2022/12/28 04:13:09;;;;;;;;;;;5.90;1.00;;;;;;5034127;28;20032;-77
2022/12/28 04:15:40;;;;;;;;;;;5.90;1.00;;;;;;5045894;28;19913;-77
2022/12/28 04:18:10;;;;;;;;;;;6.00;1.00;;;;;;5034682;28;19913;-77
2022/12/28 04:20:57;;;;;;;;;;;6.00;1.00;;;;;;5038458;28;19923;-80
2022/12/28 04:23:29;;;;;;;;;;;6.00;1.00;;;;;;5038829;28;19909;-80
2022/12/28 04:26:02;;;;;;;;;;;6.00;1.00;;;;;;5041397;28;19917;-80
2022/12/28 04:28:28;;;;;;;;;;;6.00;1.00;;;;;;5033886;28;19913;-80
2022/12/28 04:31:04;;;;;;;;;;;6.00;1.00;;;;;;5044366;28;19917;-80
2022/12/28 04:33:58;;;;;;;;;;;6.10;1.00;;;;;;5041967;28;20023;-80
2022/12/28 04:36:34;;;;;;;;;;;6.10;1.00;;;;;;5037440;28;20368;-80
2022/12/28 04:39:34;;;;;;;;;;;6.20;1.00;;;;;;5033706;28;19920;-81
2022/12/28 04:42:04;;;;;;;;;;;6.20;1.00;;;;;;5032960;28;19913;-80
2022/12/28 04:44:31;;;;;;;;;;;6.30;1.00;;;;;;5033455;28;20368;-80
2022/12/28 04:47:10;;;;;;;;;;;6.20;1.00;;;;;;5043042;28;19956;-80
2022/12/28 04:49:40;;;;;;;;;;;6.20;1.00;;;;;;5036299;28;19917;-80
2022/12/28 04:52:40;;;;;;;;;;;6.20;1.00;;;;;;5037233;28;19910;-80
2022/12/28 04:55:11;;;;;;;;;;;6.30;1.00;;;;;;5042822;28;19913;-80
2022/12/28 04:57:42;;;;;;;;;;;6.20;1.00;;;;;;5055298;28;19999;-80
2022/12/28 05:00:10;;;;;;;;;;;6.30;1.00;;;;;;5040183;28;19917;-80
2022/12/28 05:03:10;;;;;;;;;;;6.40;1.00;;;;;;5067442;28;19958;-80
2022/12/28 05:05:35;;;;;;;;;;;6.40;1.00;;;;;;5044675;28;20365;-80
2022/12/28 05:08:01;;;;;;;;;;;6.30;1.00;;;;;;5045470;28;19913;-80
2022/12/28 05:10:28;;;;;;;;;;;6.30;1.00;;;;;;5049490;28;19917;-80
2022/12/28 05:13:16;;;;;;;;;;;6.30;1.00;;;;;;5050295;28;20292;-80
2022/12/28 05:15:46;;;;;;;;;;;6.20;1.00;;;;;;5036936;28;19914;-80
2022/12/28 05:18:11;;;;;;;;;;;6.30;1.00;;;;;;5038578;28;19913;-80
2022/12/28 05:20:46;;;;;;;;;;;6.40;1.00;;;;;;5051050;28;20347;-77
2022/12/28 05:23:28;;;;;;;;;;;6.40;1.00;;;;;;5039357;28;19909;-76
2022/12/28 05:25:54;;;;;;;;;;;6.30;1.00;;;;;;5042593;28;19970;-77
2022/12/28 05:28:34;;;;;;;;;;;6.40;1.00;;;;;;5048107;28;19913;-76
2022/12/28 05:31:01;;;;;;;;;;;6.40;1.00;;;;;;5053715;28;19909;-76
2022/12/28 05:33:31;;;;;;;;;;;6.50;1.00;;;;;;5058470;28;19959;-77
2022/12/28 05:36:02;;;;;;;;;;;6.50;1.00;;;;;;5037263;28;19967;-80
2022/12/28 05:41:40;;;;;;;;;;;6.50;1.00;;;;;;5037345;28;20340;-80
2022/12/28 05:44:05;;;;;;;;;;;6.40;1.00;;;;;;5038500;28;19913;-81
2022/12/28 05:46:32;;;;;;;;;;;6.50;1.00;;;;;;5056434;28;19916;-80
2022/12/28 05:48:58;;;;;;;;;;;6.50;1.00;;;;;;5044091;28;19917;-79
2022/12/28 05:51:29;;;;;;;;;;;6.50;1.00;;;;;;5044867;28;19943;-77
2022/12/28 05:53:54;;;;;;;;;;;6.60;1.00;;;;;;5052321;28;19959;-77
2022/12/28 05:56:28;;;;;;;;;;;6.60;1.00;;;;;;5036280;28;20241;-76
2022/12/28 05:58:58;;;;;;;;;;;6.60;1.00;;;;;;5051290;28;19928;-77
2022/12/28 06:01:29;;;;;;;;;;;6.60;1.00;;;;;;5049812;28;20361;-77
2022/12/28 06:04:08;;;;;;;;;;;6.60;1.00;;;;;;5047910;28;19909;-76
2022/12/28 06:06:40;;;;;;;;;;;6.70;1.00;;;;;;5036278;28;20288;-80
2022/12/28 06:09:16;;;;;;;;;;;6.80;1.00;;;;;;5041894;28;20364;-80
2022/12/28 06:12:04;;;;;;;;;;;6.80;1.00;;;;;;5042675;28;19917;-80
2022/12/28 06:14:29;;;;;;;;;;;6.80;1.00;;;;;;5043142;28;20365;-80
2022/12/28 06:17:04;;;;;;;;;;;6.90;1.00;;;;;;5040415;28;20011;-80
2022/12/28 06:19:30;;;;;;;;;;;6.80;1.00;;;;;;5043844;28;19960;-77
2022/12/28 06:21:58;;;;;;;;;;;6.80;1.00;;;;;;5036318;28;19959;-77
2022/12/28 06:24:23;;;;;;;;;;;6.80;1.00;;;;;;5035899;28;19916;-77
2022/12/28 06:26:52;;;;;;;;;;;6.80;1.00;;;;;;5040477;28;19913;-78
2022/12/28 06:29:17;;;;;;;;;;;6.90;1.00;;;;;;5045000;28;19909;-76
2022/12/28 06:31:45;;;;;;;;;;;6.80;1.00;;;;;;5037112;28;19919;-77
2022/12/28 06:34:22;;;;;;;;;;;6.80;1.00;;;;;;5035630;28;20273;-78
2022/12/28 06:36:52;;;;;;;;;;;6.80;1.00;;;;;;5047543;28;20337;-80
2022/12/28 06:39:22;;;;;;;;;;;6.80;1.00;;;;;;5044037;28;19963;-80
2022/12/28 06:41:52;;;;;;;;;;;6.80;1.00;;;;;;5042516;28;19913;-80
2022/12/28 06:44:40;;;;;;;;;;;6.80;1.00;;;;;;5040668;28;19919;-80
2022/12/28 06:47:10;;;;;;;;;;;6.90;1.00;;;;;;5037341;28;19913;-83
2022/12/28 06:49:36;;;;;;;;;;;6.80;1.00;;;;;;5040950;28;19917;-78
2022/12/28 06:52:10;;;;;;;;;;;6.80;1.00;;;;;;5048047;28;19912;-78
2022/12/28 06:54:35;;;;;;;;;;;6.70;1.00;;;;;;5053011;28;19958;-78
2022/12/28 06:57:10;;;;;;;;;;;6.80;1.00;;;;;;5054180;28;20345;-78
2022/12/28 06:59:40;;;;;;;;;;;6.80;1.00;;;;;;5038960;28;20011;-78
2022/12/28 07:02:22;;;;;;;;;;;6.80;1.00;;;;;;5042822;28;19913;-78
2022/12/28 07:05:10;;;;;;;;;;;6.80;1.00;;;;;;5035143;28;19917;-78
2022/12/28 07:07:43;;;;;;;;;;;6.90;1.00;;;;;;5041903;28;19963;-78
2022/12/28 07:10:10;;;;;;;;;;;6.90;1.00;;;;;;5037752;28;19999;-79
2022/12/28 07:12:40;;;;;;;;;;;6.90;1.00;;;;;;5039923;28;19983;-78
2022/12/28 07:15:10;;;;;;;;;;;6.80;1.00;;;;;;5044497;28;19913;-78
2022/12/28 07:17:40;;;;;;;;;;;6.80;1.00;;;;;;5034025;28;20376;-78
2022/12/28 07:20:28;;;;;;;;;;;6.80;1.00;;;;;;5036728;28;19972;-78
2022/12/28 07:22:58;;;;;;;;;;;6.70;1.00;;;;;;5044519;28;19916;-78
2022/12/28 07:25:28;;;;;;;;;;;6.70;1.00;;;;;;5049287;28;19908;-78
2022/12/28 07:27:58;;;;;;;;;;;6.60;1.00;;;;;;5060520;28;19909;-78
2022/12/28 07:30:28;;;;;;;;;;;6.50;1.00;;;;;;5040585;28;19909;-78
2022/12/28 07:32:58;;;;;;;;;;;6.60;1.00;;;;;;5034411;28;19940;-78
2022/12/28 07:35:28;;;;;;;;;;;6.50;1.00;;;;;;5049718;28;19909;-77
2022/12/28 07:37:58;;;;;;;;;;;6.50;1.00;;;;;;5035017;28;19928;-78
2022/12/28 07:40:25;;;;;;;;;;;6.50;1.00;;;;;;5045830;28;20289;-72
2022/12/28 07:42:51;;;;;;;;;;;6.50;1.00;;;;;;5046046;28;20406;-72
2022/12/28 07:45:16;;;;;;;;;;;6.50;1.00;;;;;;5062675;28;19917;-73
2022/12/28 07:47:52;;;;;;;;;;;6.50;1.00;;;;;;5047168;28;19917;-91
2022/12/28 07:50:22;;;;;;;;;;;6.50;1.00;;;;;;5035075;28;19917;-76
2022/12/28 07:52:52;;;;;;;;;;;6.50;1.00;;;;;;5033130;28;19996;-76
2022/12/28 07:55:17;;;;;;;;;;;6.60;1.00;;;;;;5036191;28;19920;-75
2022/12/28 08:01:18;;;;;;;;;;;6.60;1.00;;;;;;5048243;28;19923;-77
2022/12/28 08:03:46;;;;;;;;;;;6.60;1.00;;;;;;5005768;28;20262;-78
2022/12/28 08:06:13;;;;;;;;;;;6.60;1.00;;;;;;4995767;28;19996;-78
2022/12/28 08:08:40;;;;;;;;;;;6.60;1.00;;;;;;5000413;28;19914;-77
2022/12/28 08:11:18;;;;;;;;;;;6.70;1.00;;;;;;5005673;28;19910;-77
2022/12/28 08:13:47;;;;;;;;;;;6.70;1.00;;;;;;5005103;28;19910;-77
2022/12/28 08:16:17;;;;;;;;;;;6.70;1.00;;;;;;5009704;28;19917;-77
2022/12/28 08:18:58;;;;;;;;;;;6.80;1.00;;;;;;5006419;28;20000;-81
2022/12/28 08:21:29;;;;;;;;;;;6.90;1.00;;;;;;5001261;28;20419;-78
2022/12/28 08:23:58;;;;;;;;;;;6.90;1.00;;;;;;5008859;28;19914;-78
2022/12/28 08:26:30;;;;;;;;;;;7.00;1.00;;;;;;5007314;28;20316;-77
2022/12/28 08:28:57;;;;;;;;;;;7.10;1.00;;;;;;5004016;28;20358;-78
2022/12/28 08:31:36;;;;;;;;;;;7.10;1.00;;;;;;4996806;28;19913;-79
2022/12/28 08:34:05;;;;;;;;;;;7.20;1.00;;;;;;5002282;28;19914;-78
2022/12/28 08:36:31;;;;;;;;;;;7.20;1.00;;;;;;5015117;28;20004;-80
2022/12/28 08:38:59;;;;;;;;;;;7.10;1.00;;;;;;5002395;28;20049;-81
2022/12/28 08:41:28;;;;;;;;;;;7.20;1.00;;;;;;5037120;28;19921;-79
2022/12/28 08:43:58;;;;;;;;;;;7.30;1.00;;;;;;5044596;28;19952;-80
2022/12/28 08:46:25;;;;;;;;;;;7.40;1.00;;;;;;5046909;28;20292;-80
2022/12/28 08:48:52;;;;;;;;;;;7.40;1.00;;;;;;5037319;28;19963;-79
2022/12/28 08:51:30;;;;;;;;;;;7.60;1.00;;;;;;5038711;28;19917;-78
2022/12/28 08:54:05;;;;;;;;;;;7.70;1.00;;;;;;5049000;28;20042;-78
2022/12/28 08:56:32;;;;;;;;;;;7.60;1.00;;;;;;5050646;28;19933;-76
2022/12/28 08:59:04;;;;;;;;;;;7.60;1.00;;;;;;5045960;28;19909;-78
2022/12/28 09:01:40;;;;;;;;;;;7.80;1.00;;;;;;5042321;28;20375;-77
2022/12/28 09:04:09;;;;;;;;;;;7.90;1.00;;;;;;5042631;28;19909;-77
2022/12/28 09:06:52;;;;;;;;;;;8.00;1.00;;;;;;5055034;28;20004;-80
2022/12/28 09:09:21;;;;;;;;;;;7.90;1.00;;;;;;5053061;28;19913;-80
2022/12/28 09:12:11;;;;;;;;;;;8.00;1.00;;;;;;5051274;28;19909;-79
2022/12/28 09:14:41;;;;;;;;;;;7.90;1.00;;;;;;5048768;28;19912;-79
2022/12/28 09:17:29;;;;;;;;;;;8.00;1.00;;;;;;5046372;28;20394;-79
2022/12/28 09:19:59;;;;;;;;;;;8.00;1.00;;;;;;5042244;28;19927;-80
2022/12/28 09:22:47;;;;;;;;;;;8.10;1.00;;;;;;5033964;28;19917;-77
2022/12/28 09:25:12;;;;;;;;;;;8.00;1.00;;;;;;5048281;28;19971;-77
2022/12/28 09:27:38;;;;;;;;;;;7.90;1.00;;;;;;5044158;28;19934;-77
2022/12/28 09:30:05;;;;;;;;;;;8.00;1.00;;;;;;5056731;28;19909;-75
2022/12/28 09:32:30;;;;;;;;;;;8.20;1.00;;;;;;5040960;28;19945;-74
2022/12/28 09:34:59;;;;;;;;;;;8.30;1.00;;;;;;5048365;28;19960;-76
2022/12/28 09:37:35;;;;;;;;;;;8.30;1.00;;;;;;5050447;28;19986;-76
2022/12/28 09:40:00;;;;;;;;;;;8.40;1.00;;;;;;5049897;28;19921;-78
2022/12/28 09:42:38;;;;;;;;;;;8.60;1.00;;;;;;5044834;28;19959;-78
2022/12/28 09:45:20;;;;;;;;;;;8.50;1.00;;;;;;5046391;28;19912;-78
2022/12/28 09:48:02;;;;;;;;;;;8.50;1.00;;;;;;5042458;28;19916;-78
2022/12/28 09:50:35;;;;;;;;;;;8.50;1.00;;;;;;5036683;28;19978;-78
2022/12/28 09:53:10;;;;;;;;;;;8.50;1.00;;;;;;5043977;28;20008;-79
2022/12/28 09:55:38;;;;;;;;;;;8.70;1.00;;;;;;5038423;28;20398;-80
2022/12/28 09:58:05;;;;;;;;;;;8.70;1.00;;;;;;5042171;28;19912;-80
2022/12/28 10:00:42;;;;;;;;;;;8.70;1.00;;;;;;5044367;28;19917;-80
2022/12/28 10:06:35;;;;;;;;;;;8.50;1.00;;;;;;5041466;28;19924;-79
2022/12/28 10:09:02;;;;;;;;;;;8.50;1.00;;;;;;5038642;28;19913;-73
2022/12/28 10:11:36;;;;;;;;;;;8.60;1.00;;;;;;5053965;28;19917;-75
2022/12/28 10:14:33;;;;;;;;;;;8.60;1.00;;;;;;5038390;28;19920;-76
2022/12/28 10:16:59;;;;;;;;;;;8.70;1.00;;;;;;4994849;28;19925;-75
2022/12/28 10:19:44;;;;;;;;;;;8.60;1.00;;;;;;4983246;28;19949;-76
2022/12/28 10:22:12;;;;;;;;;;;8.70;1.00;;;;;;5006247;28;19948;-79
2022/12/28 10:24:53;;;;;;;;;;;8.70;1.00;;;;;;4999751;28;19910;-80
2022/12/28 10:27:23;;;;;;;;;;;8.80;1.00;;;;;;5009231;28;19975;-79
2022/12/28 10:29:53;;;;;;;;;;;8.80;1.00;;;;;;5012461;28;20041;-80
2022/12/28 10:32:23;;;;;;;;;;;8.70;1.00;;;;;;5011340;28;19941;-80
2022/12/28 10:34:56;;;;;;;;;;;8.80;1.00;;;;;;5013238;28;19913;-80
2022/12/28 10:37:24;;;;;;;;;;;8.90;1.00;;;;;;5007757;28;20904;-79
2022/12/28 10:40:00;;;;;;;;;;;9.10;1.00;;;;;;5010641;28;19929;-80
2022/12/28 10:42:42;;;;;;;;;;;9.20;1.00;;;;;;5010703;28;20004;-80
2022/12/28 10:48:35;;;;;;;;;;;9.30;1.00;;;;;;5005409;28;19920;-80
2022/12/28 10:51:23;;;;;;;;;;;9.40;1.00;;;;;;5005392;28;19925;-79
2022/12/28 10:53:50;;;;;;;;;;;9.40;1.00;;;;;;5027312;28;19913;-80
2022/12/28 10:56:30;;;;;;;;;;;9.40;1.00;;;;;;5037508;28;20357;-80
2022/12/28 10:59:17;;;;;;;;;;;9.40;1.00;;;;;;5041899;28;20276;-79
2022/12/28 11:01:47;;;;;;;;;;;9.40;1.00;;;;;;5035583;28;19924;-79
2022/12/28 11:04:18;;;;;;;;;;;9.40;1.00;;;;;;5038119;28;19909;-81
2022/12/28 11:06:54;;;;;;;;;;;9.40;1.00;;;;;;5037454;28;19978;-79
2022/12/28 11:09:41;;;;;;;;;;;9.30;1.00;;;;;;5035823;28;19913;-80
2022/12/28 11:12:24;;;;;;;;;;;9.40;1.00;;;;;;5036640;28;19924;-80
2022/12/28 11:14:51;;;;;;;;;;;9.40;1.00;;;;;;5042804;28;19952;-80
2022/12/28 11:17:36;;;;;;;;;;;9.60;1.00;;;;;;5039005;28;19959;-80
2022/12/28 11:20:23;;;;;;;;;;;9.70;1.00;;;;;;5042613;28;20364;-80
2022/12/28 11:23:05;;;;;;;;;;;9.70;1.00;;;;;;5040300;28;19936;-76
2022/12/28 11:25:47;;;;;;;;;;;9.60;1.00;;;;;;5045909;28;19917;-76
2022/12/28 11:28:29;;;;;;;;;;;9.60;1.00;;;;;;5038299;28;19920;-78
2022/12/28 11:30:55;;;;;;;;;;;9.70;1.00;;;;;;5042861;28;19956;-75
2022/12/28 11:33:47;;;;;;;;;;;9.50;1.00;;;;;;5035321;28;19917;-76
2022/12/28 11:36:30;;;;;;;;;;;9.60;1.00;;;;;;5048404;28;19912;-77
2022/12/28 11:42:06;;;;;;;;;;;9.70;1.00;;;;;;5034001;28;20514;-80
2022/12/28 11:47:35;;;;;;;;;;;9.70;1.00;;;;;;5044712;28;19928;-79
2022/12/28 11:50:19;;;;;;;;;;;9.90;1.00;;;;;;5038975;28;20280;-81
2022/12/28 11:52:46;;;;;;;;;;;9.90;1.00;;;;;;5037843;28;19917;-85
2022/12/28 11:55:35;;;;;;;;;;;10.50;1.00;;;;;;5047735;28;19909;-80
2022/12/28 11:58:20;;;;;;;;;;;10.10;1.00;;;;;;5043763;28;20416;-80
2022/12/28 12:00:55;;;;;;;;;;;10.20;1.00;;;;;;5051150;28;19917;-79
2022/12/28 12:03:55;;;;;;;;;;;10.20;1.00;;;;;;5042300;28;19913;-81
2022/12/28 12:06:43;;;;;;;;;;;10.30;1.00;;;;;;5011284;28;19968;-81
2022/12/28 12:09:21;;;;;;;;;;;10.30;1.00;;;;;;4982142;28;19914;-75
2022/12/28 12:11:48;;;;;;;;;;;10.30;1.00;;;;;;4983220;28;20289;-76
2022/12/28 12:14:15;;;;;;;;;;;10.20;1.00;;;;;;4990227;28;20019;-75
2022/12/28 12:17:05;;;;;;;;;;;10.30;1.00;;;;;;4987007;28;19918;-75
2022/12/28 12:19:49;;;;;;;;;;;10.30;1.00;;;;;;4975834;28;19917;-75
2022/12/28 12:22:22;;;;;;;;;;;10.50;1.00;;;;;;4990795;28;20394;-75
2022/12/28 12:24:57;;;;;;;;;;;10.50;1.00;;;;;;4973555;28;20012;-76
2022/12/28 12:27:46;;;;;;;;;;;10.50;1.00;;;;;;4976844;28;20433;-75
2022/12/28 12:30:18;;;;;;;;;;;10.60;1.00;;;;;;4982654;28;19914;-75
2022/12/28 12:32:50;;;;;;;;;;;10.40;1.00;;;;;;4987495;28;19913;-74
2022/12/28 12:35:18;;;;;;;;;;;10.50;1.00;;;;;;4992574;28;19980;-75
2022/12/28 12:38:05;;;;;;;;;;;10.50;1.00;;;;;;4992465;28;19964;-75
2022/12/28 12:40:42;;;;;;;;;;;10.40;1.00;;;;;;4991873;28;19922;-74
2022/12/28 12:43:29;;;;;;;;;;;10.20;1.00;;;;;;4996988;28;19913;-75
2022/12/28 12:46:13;;;;;;;;;;;10.30;1.00;;;;;;5017765;28;19919;-75
2022/12/28 12:48:58;;;;;;;;;;;10.30;1.00;;;;;;5038479;28;20412;-75
2022/12/28 12:51:28;;;;;;;;;;;10.20;1.00;;;;;;5038313;28;20372;-75
2022/12/28 12:54:25;;;;;;;;;;;10.00;1.00;;;;;;5061118;28;19960;-74
2022/12/28 12:56:54;;;;;;;;;;;10.00;1.00;;;;;;4994667;28;20472;-74
2022/12/28 12:59:30;;;;;;;;;;;9.90;1.00;;;;;;5000771;28;20269;-77
2022/12/28 13:02:14;;;;;;;;;;;9.90;1.00;;;;;;5002554;28;19913;-76
2022/12/28 13:04:44;;;;;;;;;;;9.90;1.00;;;;;;5009287;28;19949;-76
2022/12/28 13:07:21;;;;;;;;;;;9.90;1.00;;;;;;5009114;28;19996;-76
2022/12/28 13:10:01;;;;;;;;;;;10.00;1.00;;;;;;5000093;28;19926;-79
2022/12/28 13:12:41;;;;;;;;;;;9.90;1.00;;;;;;4998257;28;19913;-80
2022/12/28 13:15:13;;;;;;;;;;;9.90;1.00;;;;;;5014437;28;20361;-83
2022/12/28 13:18:01;;;;;;;;;;;10.00;1.00;;;;;;5012371;28;19983;-77
2022/12/28 13:20:47;;;;;;;;;;;10.00;1.00;;;;;;5009459;28;19960;-81
2022/12/28 13:23:15;;;;;;;;;;;9.90;1.00;;;;;;5005429;28;19916;-80
2022/12/28 13:25:55;;;;;;;;;;;9.90;1.00;;;;;;5014925;28;19928;-75
2022/12/28 13:28:25;;;;;;;;;;;9.90;1.00;;;;;;5014612;28;19941;-75
2022/12/28 13:31:17;;;;;;;;;;;10.00;1.00;;;;;;5001832;28;19960;-76
2022/12/28 13:33:53;;;;;;;;;;;10.10;1.00;;;;;;5031675;28;19948;-75
2022/12/28 13:36:18;;;;;;;;;;;9.90;1.00;;;;;;5035366;28;20257;-74
2022/12/28 13:38:58;;;;;;;;;;;9.90;1.00;;;;;;5041432;28;20083;-75
2022/12/28 13:41:24;;;;;;;;;;;9.90;1.00;;;;;;5047707;28;19921;-75
2022/12/28 13:43:59;;;;;;;;;;;10.00;1.00;;;;;;5041972;28;19913;-75
2022/12/28 13:46:25;;;;;;;;;;;10.10;1.00;;;;;;5056186;28;20268;-75
2022/12/28 13:48:54;;;;;;;;;;;10.10;1.00;;;;;;5046840;28;19913;-75
2022/12/28 13:51:20;;;;;;;;;;;10.20;1.00;;;;;;5046651;28;19974;-75
2022/12/28 13:53:52;;;;;;;;;;;10.10;1.00;;;;;;5045212;28;19959;-75
2022/12/28 13:56:30;;;;;;;;;;;10.10;1.00;;;;;;5046079;28;20008;-80
2022/12/28 13:59:08;;;;;;;;;;;10.20;1.00;;;;;;5048347;28;19909;-82
2022/12/28 14:01:38;;;;;;;;;;;10.20;1.00;;;;;;5042511;28;19913;-80
2022/12/28 14:04:20;;;;;;;;;;;10.20;1.00;;;;;;5038098;28;19913;-80
2022/12/28 14:06:48;;;;;;;;;;;10.20;1.00;;;;;;5055919;28;19920;-80
2022/12/28 14:09:19;;;;;;;;;;;10.20;1.00;;;;;;5039562;28;19917;-82
2022/12/28 14:11:45;;;;;;;;;;;10.00;1.00;;;;;;5046497;28;20300;-82
2022/12/28 14:14:35;;;;;;;;;;;10.10;1.00;;;;;;5046491;28;19920;-83
2022/12/28 14:17:23;;;;;;;;;;;10.10;1.00;;;;;;5036322;28;19913;-82
2022/12/28 14:22:52;;;;;;;;;;;10.20;1.00;;;;;;5035253;28;20330;-81
2022/12/28 14:25:40;;;;;;;;;;;10.20;1.00;;;;;;5037197;28;19917;-80
2022/12/28 14:28:06;;;;;;;;;;;10.20;1.00;;;;;;5051076;28;19916;-80
2022/12/28 14:30:59;;;;;;;;;;;10.30;1.00;;;;;;5045777;28;19909;-80
2022/12/28 14:33:31;;;;;;;;;;;10.20;1.00;;;;;;5041748;28;19913;-79
2022/12/28 14:36:16;;;;;;;;;;;10.20;1.00;;;;;;5052299;28;20266;-81
2022/12/28 14:39:00;;;;;;;;;;;10.20;1.00;;;;;;5042347;28;19940;-80
2022/12/28 14:41:59;;;;;;;;;;;10.20;1.00;;;;;;5036315;28;20015;-77
2022/12/28 14:44:37;;;;;;;;;;;10.10;1.00;;;;;;5040440;28;19916;-76
2022/12/28 14:47:22;;;;;;;;;;;10.00;1.00;;;;;;5048360;28;20349;-76
2022/12/28 14:49:48;;;;;;;;;;;10.00;1.00;;;;;;5036569;28;19921;-76
2022/12/28 14:52:30;;;;;;;;;;;9.90;1.00;;;;;;5052554;28;19920;-77
2022/12/28 14:54:56;;;;;;;;;;;9.80;1.00;;;;;;5058861;28;20317;-78
2022/12/28 14:57:28;;;;;;;;;;;9.80;1.00;;;;;;5055277;28;20059;-80
2022/12/28 14:59:57;;;;;;;;;;;9.90;1.00;;;;;;5037988;28;20395;-82
2022/12/28 15:02:32;;;;;;;;;;;10.00;1.00;;;;;;5060993;28;19909;-81
2022/12/28 15:05:24;;;;;;;;;;;9.90;1.00;;;;;;5044676;28;19953;-81
2022/12/28 15:07:54;;;;;;;;;;;10.00;1.00;;;;;;5036892;28;19920;-81
2022/12/28 15:10:32;;;;;;;;;;;10.00;1.00;;;;;;5046103;28;19916;-81
2022/12/28 15:13:00;;;;;;;;;;;9.90;1.00;;;;;;5045935;28;19909;-83
2022/12/28 15:15:48;;;;;;;;;;;9.80;1.00;;;;;;5039058;28;19919;-82
2022/12/28 15:18:19;;;;;;;;;;;9.80;1.00;;;;;;5037698;28;19912;-81
2022/12/28 15:20:48;;;;;;;;;;;9.90;1.00;;;;;;5045940;28;19913;-81
2022/12/28 15:23:25;;;;;;;;;;;9.80;1.00;;;;;;5038415;28;19917;-81
2022/12/28 15:26:18;;;;;;;;;;;9.70;1.00;;;;;;5036943;28;19909;-82
2022/12/28 15:28:49;;;;;;;;;;;9.80;1.00;;;;;;5034201;28;19916;-82
2022/12/28 15:31:16;;;;;;;;;;;9.80;1.00;;;;;;5052371;28;20395;-82
2022/12/28 15:33:49;;;;;;;;;;;9.80;1.00;;;;;;5046120;28;19931;-82
2022/12/28 15:36:44;;;;;;;;;;;9.70;1.00;;;;;;5040593;28;19920;-82
2022/12/28 15:42:19;;;;;;;;;;;9.70;1.00;;;;;;5044804;28;19936;-77
2022/12/28 15:44:51;;;;;;;;;;;9.70;1.00;;;;;;5037874;28;19924;-76
2022/12/28 15:47:19;;;;;;;;;;;9.70;1.00;;;;;;5033992;28;19952;-76
2022/12/28 15:49:45;;;;;;;;;;;9.60;1.00;;;;;;5043340;28;19913;-76
2022/12/28 15:52:12;;;;;;;;;;;9.70;1.00;;;;;;5054794;28;20418;-76
2022/12/28 15:54:42;;;;;;;;;;;9.70;1.00;;;;;;5051270;28;19920;-75
2022/12/28 15:57:31;;;;;;;;;;;9.60;1.00;;;;;;5046638;28;19951;-76
2022/12/28 15:59:56;;;;;;;;;;;9.60;1.00;;;;;;5054352;28;19928;-76
2022/12/28 16:02:25;;;;;;;;;;;9.60;1.00;;;;;;5048604;28;19912;-75
2022/12/28 16:04:55;;;;;;;;;;;9.60;1.00;;;;;;5054108;28;20361;-75
2022/12/28 16:07:20;;;;;;;;;;;9.60;1.00;;;;;;5039153;28;19992;-75
2022/12/28 16:09:46;;;;;;;;;;;9.60;1.00;;;;;;5045474;28;20267;-74
2022/12/28 16:12:28;;;;;;;;;;;9.50;1.00;;;;;;5043792;28;20274;-74
2022/12/28 16:14:55;;;;;;;;;;;9.50;1.00;;;;;;5047433;28;19909;-76
2022/12/28 16:17:37;;;;;;;;;;;9.40;1.00;;;;;;5045274;28;20000;-76
2022/12/28 16:20:07;;;;;;;;;;;9.40;1.00;;;;;;5057401;28;19972;-75
2022/12/28 16:22:43;;;;;;;;;;;9.40;1.00;;;;;;5042741;28;19913;-76
2022/12/28 16:25:13;;;;;;;;;;;9.30;1.00;;;;;;5053290;28;19909;-76
2022/12/28 16:27:38;;;;;;;;;;;9.30;1.00;;;;;;5042962;28;19912;-81